RJFY(METAR)
08/15 04:00
METAR RJFY 141900Z 25008KT 9999 FEW015 27/24 Q1011 RMK 1CU015 A2986=
戻る
トップページへ戻る
IMOC Co,.Ltd.